Asturias/Aviles, Spain
Current Conditions -  °F | °C
As of 9:30 PM on Monday 24 Nov 2014 (Local Time) from LEAS Reporting Station
Light Rain Light Rain  
Wind Chill: 55°   Ceiling: 1200
Heat Index: 55°   Visibility: 2.5mi
Dew Point: 55°   Wind: 2mph
Humidity: 100%   Direction: NA
Pressure: 30.12"   Gusts: NA
Location:  43.56°N, 5.93°W
Report Text: LEAS 242030Z VRB02KT 4000 -DZRA SCT008 BKN012 BKN018 13/13 Q1020 TEMPO 2000 RA BR BKN008
Loading
Personal Weather Stations






























Interactive Weather Map New forecast layout! Learn more

10-Day Weather Forecast

Advertisements
Track Severe Weather on mobile